sensor_id;sensor_type;location;lat;lon;timestamp;temperature;humidity
45383;DHT22;42455;51.660;5.824;2023-09-07T00:00:39;20.3;87.5
45383;DHT22;42455;51.660;5.824;2023-09-07T00:05:45;20.2;87.5
45383;DHT22;42455;51.660;5.824;2023-09-07T00:10:50;20.2;87.5
45383;DHT22;42455;51.660;5.824;2023-09-07T00:15:58;20.1;87.5
45383;DHT22;42455;51.660;5.824;2023-09-07T00:21:03;20.0;88.0
45383;DHT22;42455;51.660;5.824;2023-09-07T00:26:09;19.9;88.0
45383;DHT22;42455;51.660;5.824;2023-09-07T00:31:15;19.9;88.0
45383;DHT22;42455;51.660;5.824;2023-09-07T00:36:21;19.8;88.0
45383;DHT22;42455;51.660;5.824;2023-09-07T00:41:28;19.8;88.5
45383;DHT22;42455;51.660;5.824;2023-09-07T00:46:34;19.7;88.5
45383;DHT22;42455;51.660;5.824;2023-09-07T00:51:40;19.6;88.5
45383;DHT22;42455;51.660;5.824;2023-09-07T00:56:46;19.5;88.5
45383;DHT22;42455;51.660;5.824;2023-09-07T01:01:52;19.5;89.0
45383;DHT22;42455;51.660;5.824;2023-09-07T01:07:24;19.4;89.0
45383;DHT22;42455;51.660;5.824;2023-09-07T01:12:05;19.3;89.5
45383;DHT22;42455;51.660;5.824;2023-09-07T01:17:12;19.3;89.5
45383;DHT22;42455;51.660;5.824;2023-09-07T01:22:19;19.2;89.5
45383;DHT22;42455;51.660;5.824;2023-09-07T01:27:24;19.2;90.0
45383;DHT22;42455;51.660;5.824;2023-09-07T01:32:30;19.1;90.0
45383;DHT22;42455;51.660;5.824;2023-09-07T01:37:35;19.1;90.0
45383;DHT22;42455;51.660;5.824;2023-09-07T01:42:41;19.0;90.0
45383;DHT22;42455;51.660;5.824;2023-09-07T01:47:47;19.0;90.0
45383;DHT22;42455;51.660;5.824;2023-09-07T01:52:54;19.0;90.5
45383;DHT22;42455;51.660;5.824;2023-09-07T01:58:00;19.0;90.5
45383;DHT22;42455;51.660;5.824;2023-09-07T02:03:06;18.9;90.5
45383;DHT22;42455;51.660;5.824;2023-09-07T02:08:12;18.9;90.5
45383;DHT22;42455;51.660;5.824;2023-09-07T02:13:18;18.8;90.5
45383;DHT22;42455;51.660;5.824;2023-09-07T02:18:25;18.8;90.5
45383;DHT22;42455;51.660;5.824;2023-09-07T02:23:31;18.8;90.5
45383;DHT22;42455;51.660;5.824;2023-09-07T02:28:37;18.7;90.5
45383;DHT22;42455;51.660;5.824;2023-09-07T02:33:43;18.7;90.5
45383;DHT22;42455;51.660;5.824;2023-09-07T02:38:49;18.6;90.5
45383;DHT22;42455;51.660;5.824;2023-09-07T02:43:56;18.5;90.5
45383;DHT22;42455;51.660;5.824;2023-09-07T02:49:01;18.5;90.5
45383;DHT22;42455;51.660;5.824;2023-09-07T02:54:07;18.4;90.5
45383;DHT22;42455;51.660;5.824;2023-09-07T02:59:13;18.4;91.0
45383;DHT22;42455;51.660;5.824;2023-09-07T03:04:19;18.4;91.0
45383;DHT22;42455;51.660;5.824;2023-09-07T03:09:26;18.3;91.0
45383;DHT22;42455;51.660;5.824;2023-09-07T03:14:32;18.3;91.0
45383;DHT22;42455;51.660;5.824;2023-09-07T03:19:38;18.3;91.5
45383;DHT22;42455;51.660;5.824;2023-09-07T03:24:44;18.3;92.0
45383;DHT22;42455;51.660;5.824;2023-09-07T03:29:51;18.3;92.0
45383;DHT22;42455;51.660;5.824;2023-09-07T03:34:57;18.3;92.0
45383;DHT22;42455;51.660;5.824;2023-09-07T03:40:03;18.3;92.5
45383;DHT22;42455;51.660;5.824;2023-09-07T03:45:09;18.3;92.5
45383;DHT22;42455;51.660;5.824;2023-09-07T03:50:15;18.2;93.0
45383;DHT22;42455;51.660;5.824;2023-09-07T03:55:22;18.3;93.0
45383;DHT22;42455;51.660;5.824;2023-09-07T04:00:28;18.3;93.0
45383;DHT22;42455;51.660;5.824;2023-09-07T04:05:36;18.3;93.5
45383;DHT22;42455;51.660;5.824;2023-09-07T04:10:40;18.3;93.5
45383;DHT22;42455;51.660;5.824;2023-09-07T04:15:46;18.4;93.5
45383;DHT22;42455;51.660;5.824;2023-09-07T04:20:53;18.4;93.5
45383;DHT22;42455;51.660;5.824;2023-09-07T04:26:03;18.4;93.0
45383;DHT22;42455;51.660;5.824;2023-09-07T04:31:05;18.4;93.0
45383;DHT22;42455;51.660;5.824;2023-09-07T04:36:12;18.3;93.0
45383;DHT22;42455;51.660;5.824;2023-09-07T04:41:17;18.3;93.0
45383;DHT22;42455;51.660;5.824;2023-09-07T04:46:24;18.3;93.5
45383;DHT22;42455;51.660;5.824;2023-09-07T04:51:30;18.3;93.5
45383;DHT22;42455;51.660;5.824;2023-09-07T04:56:36;18.3;93.5
45383;DHT22;42455;51.660;5.824;2023-09-07T05:01:42;18.3;93.5
45383;DHT22;42455;51.660;5.824;2023-09-07T05:06:49;18.3;93.5
45383;DHT22;42455;51.660;5.824;2023-09-07T05:11:55;18.3;93.5
45383;DHT22;42455;51.660;5.824;2023-09-07T05:17:01;18.3;93.5
45383;DHT22;42455;51.660;5.824;2023-09-07T05:22:07;18.2;93.0
45383;DHT22;42455;51.660;5.824;2023-09-07T05:27:13;18.2;93.0
45383;DHT22;42455;51.660;5.824;2023-09-07T05:32:20;18.2;93.0
45383;DHT22;42455;51.660;5.824;2023-09-07T05:37:26;18.2;93.0
45383;DHT22;42455;51.660;5.824;2023-09-07T05:42:32;18.2;93.0
45383;DHT22;42455;51.660;5.824;2023-09-07T05:47:38;18.1;93.0
45383;DHT22;42455;51.660;5.824;2023-09-07T05:52:44;18.1;93.5
45383;DHT22;42455;51.660;5.824;2023-09-07T05:57:51;18.2;93.5
45383;DHT22;42455;51.660;5.824;2023-09-07T06:02:57;18.2;94.0
45383;DHT22;42455;51.660;5.824;2023-09-07T06:08:04;18.2;94.0
45383;DHT22;42455;51.660;5.824;2023-09-07T06:13:09;18.3;94.5
45383;DHT22;42455;51.660;5.824;2023-09-07T06:18:15;18.5;94.5
45383;DHT22;42455;51.660;5.824;2023-09-07T06:23:22;18.6;95.0
45383;DHT22;42455;51.660;5.824;2023-09-07T06:28:28;18.8;95.0
45383;DHT22;42455;51.660;5.824;2023-09-07T06:33:34;19.1;95.0
45383;DHT22;42455;51.660;5.824;2023-09-07T06:38:40;19.3;95.0
45383;DHT22;42455;51.660;5.824;2023-09-07T06:43:46;19.6;95.0
45383;DHT22;42455;51.660;5.824;2023-09-07T06:48:53;19.9;95.0
45383;DHT22;42455;51.660;5.824;2023-09-07T06:53:59;20.2;95.0
45383;DHT22;42455;51.660;5.824;2023-09-07T06:59:05;20.5;95.0
45383;DHT22;42455;51.660;5.824;2023-09-07T07:04:11;20.9;95.0
45383;DHT22;42455;51.660;5.824;2023-09-07T07:09:17;21.2;94.5
45383;DHT22;42455;51.660;5.824;2023-09-07T07:14:24;21.6;94.0
45383;DHT22;42455;51.660;5.824;2023-09-07T07:19:30;21.9;93.5
45383;DHT22;42455;51.660;5.824;2023-09-07T07:24:36;22.2;93.0
45383;DHT22;42455;51.660;5.824;2023-09-07T07:29:42;22.5;92.5
45383;DHT22;42455;51.660;5.824;2023-09-07T07:34:49;22.8;92.0
45383;DHT22;42455;51.660;5.824;2023-09-07T07:39:55;23.1;91.5
45383;DHT22;42455;51.660;5.824;2023-09-07T07:45:01;23.4;90.5
45383;DHT22;42455;51.660;5.824;2023-09-07T07:50:07;23.6;90.5
45383;DHT22;42455;51.660;5.824;2023-09-07T07:55:13;23.9;90.0
45383;DHT22;42455;51.660;5.824;2023-09-07T08:00:20;24.1;89.5
45383;DHT22;42455;51.660;5.824;2023-09-07T08:05:26;24.3;88.5
45383;DHT22;42455;51.660;5.824;2023-09-07T08:10:33;24.6;88.0
45383;DHT22;42455;51.660;5.824;2023-09-07T08:15:38;24.9;87.0
45383;DHT22;42455;51.660;5.824;2023-09-07T08:20:44;25.2;86.0
45383;DHT22;42455;51.660;5.824;2023-09-07T08:25:51;25.4;84.5
45383;DHT22;42455;51.660;5.824;2023-09-07T08:30:56;25.7;84.0
45383;DHT22;42455;51.660;5.824;2023-09-07T08:36:02;25.9;82.5
45383;DHT22;42455;51.660;5.824;2023-09-07T08:41:08;26.2;81.5
45383;DHT22;42455;51.660;5.824;2023-09-07T08:46:20;26.3;80.0
45383;DHT22;42455;51.660;5.824;2023-09-07T08:51:21;26.5;79.5
45383;DHT22;42455;51.660;5.824;2023-09-07T08:56:27;26.7;79.0
45383;DHT22;42455;51.660;5.824;2023-09-07T09:01:33;26.9;78.5
45383;DHT22;42455;51.660;5.824;2023-09-07T09:06:40;0.0;0.0
45383;DHT22;42455;51.660;5.824;2023-09-07T09:11:46;27.2;77.0
45383;DHT22;42455;51.660;5.824;2023-09-07T09:16:52;27.4;76.5
45383;DHT22;42455;51.660;5.824;2023-09-07T09:21:59;27.5;76.0
45383;DHT22;42455;51.660;5.824;2023-09-07T09:27:05;27.7;75.5
45383;DHT22;42455;51.660;5.824;2023-09-07T09:32:13;27.8;75.0
45383;DHT22;42455;51.660;5.824;2023-09-07T09:37:17;28.0;75.0
45383;DHT22;42455;51.660;5.824;2023-09-07T09:42:23;28.1;74.5
45383;DHT22;42455;51.660;5.824;2023-09-07T09:47:30;28.3;74.0
45383;DHT22;42455;51.660;5.824;2023-09-07T09:57:42;28.6;72.5
45383;DHT22;42455;51.660;5.824;2023-09-07T10:02:51;28.8;72.0
45383;DHT22;42455;51.660;5.824;2023-09-07T10:07:59;28.8;71.0
45383;DHT22;42455;51.660;5.824;2023-09-07T10:13:00;28.9;70.5
45383;DHT22;42455;51.660;5.824;2023-09-07T10:18:08;29.0;70.0
45383;DHT22;42455;51.660;5.824;2023-09-07T10:23:13;29.1;70.5
45383;DHT22;42455;51.660;5.824;2023-09-07T10:28:19;29.2;70.0
45383;DHT22;42455;51.660;5.824;2023-09-07T10:33:25;29.4;70.5
45383;DHT22;42455;51.660;5.824;2023-09-07T10:38:32;29.5;70.0
45383;DHT22;42455;51.660;5.824;2023-09-07T10:43:46;29.5;69.5
45383;DHT22;42455;51.660;5.824;2023-09-07T10:48:44;29.7;69.0
45383;DHT22;42455;51.660;5.824;2023-09-07T10:53:50;29.8;69.0
45383;DHT22;42455;51.660;5.824;2023-09-07T10:58:56;29.8;68.5
45383;DHT22;42455;51.660;5.824;2023-09-07T11:04:03;29.8;67.5
45383;DHT22;42455;51.660;5.824;2023-09-07T11:09:09;29.9;67.5
45383;DHT22;42455;51.660;5.824;2023-09-07T11:14:15;30.0;67.5
45383;DHT22;42455;51.660;5.824;2023-09-07T11:19:22;30.1;67.5
45383;DHT22;42455;51.660;5.824;2023-09-07T11:24:28;30.2;66.0
45383;DHT22;42455;51.660;5.824;2023-09-07T11:29:34;30.3;66.5
45383;DHT22;42455;51.660;5.824;2023-09-07T11:34:46;30.4;66.5
45383;DHT22;42455;51.660;5.824;2023-09-07T11:39:46;30.5;66.5
45383;DHT22;42455;51.660;5.824;2023-09-07T11:44:52;30.6;65.5
45383;DHT22;42455;51.660;5.824;2023-09-07T11:49:59;30.7;65.0
45383;DHT22;42455;51.660;5.824;2023-09-07T11:55:05;30.8;65.0
45383;DHT22;42455;51.660;5.824;2023-09-07T12:00:11;30.9;64.0
45383;DHT22;42455;51.660;5.824;2023-09-07T12:05:17;31.0;63.5
45383;DHT22;42455;51.660;5.824;2023-09-07T12:10:23;31.0;63.5
45383;DHT22;42455;51.660;5.824;2023-09-07T12:15:30;31.2;63.0
45383;DHT22;42455;51.660;5.824;2023-09-07T12:20:36;31.3;62.5
45383;DHT22;42455;51.660;5.824;2023-09-07T12:25:42;31.4;62.5
45383;DHT22;42455;51.660;5.824;2023-09-07T12:30:48;31.5;61.5
45383;DHT22;42455;51.660;5.824;2023-09-07T12:41:01;31.6;60.0
45383;DHT22;42455;51.660;5.824;2023-09-07T12:46:07;31.7;60.0
45383;DHT22;42455;51.660;5.824;2023-09-07T12:51:13;31.7;60.5
45383;DHT22;42455;51.660;5.824;2023-09-07T12:56:19;31.9;60.0
45383;DHT22;42455;51.660;5.824;2023-09-07T13:01:25;32.0;60.0
45383;DHT22;42455;51.660;5.824;2023-09-07T13:06:32;32.2;59.5
45383;DHT22;42455;51.660;5.824;2023-09-07T13:11:38;32.2;60.0
45383;DHT22;42455;51.660;5.824;2023-09-07T13:16:44;32.4;59.5
45383;DHT22;42455;51.660;5.824;2023-09-07T13:21:50;32.5;59.5
45383;DHT22;42455;51.660;5.824;2023-09-07T13:26:57;32.5;59.0
45383;DHT22;42455;51.660;5.824;2023-09-07T13:32:03;32.6;59.0
45383;DHT22;42455;51.660;5.824;2023-09-07T13:37:09;32.7;60.0
45383;DHT22;42455;51.660;5.824;2023-09-07T13:42:16;32.8;59.5
45383;DHT22;42455;51.660;5.824;2023-09-07T13:47:21;32.9;59.0
45383;DHT22;42455;51.660;5.824;2023-09-07T13:52:27;33.0;58.5
45383;DHT22;42455;51.660;5.824;2023-09-07T13:57:33;33.0;59.0
45383;DHT22;42455;51.660;5.824;2023-09-07T14:02:39;33.0;58.0
45383;DHT22;42455;51.660;5.824;2023-09-07T14:07:45;33.0;58.5
45383;DHT22;42455;51.660;5.824;2023-09-07T14:12:52;33.0;58.5
45383;DHT22;42455;51.660;5.824;2023-09-07T14:17:58;33.1;58.5
45383;DHT22;42455;51.660;5.824;2023-09-07T14:23:04;33.1;57.5
45383;DHT22;42455;51.660;5.824;2023-09-07T14:28:10;33.1;57.5
45383;DHT22;42455;51.660;5.824;2023-09-07T14:33:16;33.2;57.0
45383;DHT22;42455;51.660;5.824;2023-09-07T14:38:23;33.2;57.5
45383;DHT22;42455;51.660;5.824;2023-09-07T14:43:29;33.2;57.5
45383;DHT22;42455;51.660;5.824;2023-09-07T14:48:35;33.2;57.0
45383;DHT22;42455;51.660;5.824;2023-09-07T14:53:41;33.2;57.0
45383;DHT22;42455;51.660;5.824;2023-09-07T14:58:47;33.2;56.5
45383;DHT22;42455;51.660;5.824;2023-09-07T15:03:54;33.1;56.5
45383;DHT22;42455;51.660;5.824;2023-09-07T15:09:00;33.1;56.5
45383;DHT22;42455;51.660;5.824;2023-09-07T15:14:06;33.1;58.0
45383;DHT22;42455;51.660;5.824;2023-09-07T15:19:12;33.2;58.0
45383;DHT22;42455;51.660;5.824;2023-09-07T15:24:18;33.2;57.0
45383;DHT22;42455;51.660;5.824;2023-09-07T15:29:25;33.2;57.5
45383;DHT22;42455;51.660;5.824;2023-09-07T15:34:31;33.3;57.5
45383;DHT22;42455;51.660;5.824;2023-09-07T15:39:37;33.3;57.0
45383;DHT22;42455;51.660;5.824;2023-09-07T15:44:43;33.3;57.5
45383;DHT22;42455;51.660;5.824;2023-09-07T15:54:56;33.3;57.0
45383;DHT22;42455;51.660;5.824;2023-09-07T16:00:02;33.4;57.5
45383;DHT22;42455;51.660;5.824;2023-09-07T16:05:08;33.4;57.5
45383;DHT22;42455;51.660;5.824;2023-09-07T16:10:14;33.3;57.5
45383;DHT22;42455;51.660;5.824;2023-09-07T16:15:21;33.4;58.5
45383;DHT22;42455;51.660;5.824;2023-09-07T16:20:27;33.3;59.0
45383;DHT22;42455;51.660;5.824;2023-09-07T16:25:33;33.3;59.5
45383;DHT22;42455;51.660;5.824;2023-09-07T16:30:39;33.3;59.5
45383;DHT22;42455;51.660;5.824;2023-09-07T16:35:45;33.2;59.5
45383;DHT22;42455;51.660;5.824;2023-09-07T16:40:52;33.1;60.0
45383;DHT22;42455;51.660;5.824;2023-09-07T16:45:58;33.0;60.0
45383;DHT22;42455;51.660;5.824;2023-09-07T16:51:05;32.9;60.5
45383;DHT22;42455;51.660;5.824;2023-09-07T16:56:10;32.8;61.0
45383;DHT22;42455;51.660;5.824;2023-09-07T17:01:16;32.6;61.0
45383;DHT22;42455;51.660;5.824;2023-09-07T17:06:23;32.4;61.5
45383;DHT22;42455;51.660;5.824;2023-09-07T17:11:29;32.2;61.5
45383;DHT22;42455;51.660;5.824;2023-09-07T17:16:35;32.0;62.0
45383;DHT22;42455;51.660;5.824;2023-09-07T17:21:41;31.7;62.5
45383;DHT22;42455;51.660;5.824;2023-09-07T17:26:48;31.5;63.0
45383;DHT22;42455;51.660;5.824;2023-09-07T17:31:54;31.2;63.5
45383;DHT22;42455;51.660;5.824;2023-09-07T17:37:00;31.0;64.0
45383;DHT22;42455;51.660;5.824;2023-09-07T17:42:06;30.8;64.5
45383;DHT22;42455;51.660;5.824;2023-09-07T17:47:12;30.5;65.0
45383;DHT22;42455;51.660;5.824;2023-09-07T17:52:19;30.3;65.5
45383;DHT22;42455;51.660;5.824;2023-09-07T17:57:25;30.1;66.5
45383;DHT22;42455;51.660;5.824;2023-09-07T18:02:31;29.9;67.0
45383;DHT22;42455;51.660;5.824;2023-09-07T18:07:37;29.7;67.5
45383;DHT22;42455;51.660;5.824;2023-09-07T18:12:43;29.5;67.5
45383;DHT22;42455;51.660;5.824;2023-09-07T18:17:50;29.3;68.0
45383;DHT22;42455;51.660;5.824;2023-09-07T18:22:56;29.1;68.5
45383;DHT22;42455;51.660;5.824;2023-09-07T18:28:02;28.9;69.0
45383;DHT22;42455;51.660;5.824;2023-09-07T18:33:09;28.7;69.5
45383;DHT22;42455;51.660;5.824;2023-09-07T18:38:14;28.5;70.0
45383;DHT22;42455;51.660;5.824;2023-09-07T18:43:21;28.2;70.0
45383;DHT22;42455;51.660;5.824;2023-09-07T18:48:27;28.0;71.0
45383;DHT22;42455;51.660;5.824;2023-09-07T18:53:34;27.7;71.5
45383;DHT22;42455;51.660;5.824;2023-09-07T18:58:39;27.4;72.5
45383;DHT22;42455;51.660;5.824;2023-09-07T19:03:50;27.2;73.0
45383;DHT22;42455;51.660;5.824;2023-09-07T19:08:52;27.0;74.0
45383;DHT22;42455;51.660;5.824;2023-09-07T19:13:58;26.7;74.0
45383;DHT22;42455;51.660;5.824;2023-09-07T19:19:04;0.0;0.0
45383;DHT22;42455;51.660;5.824;2023-09-07T19:24:10;26.3;75.5
45383;DHT22;42455;51.660;5.824;2023-09-07T19:29:16;26.1;76.0
45383;DHT22;42455;51.660;5.824;2023-09-07T19:34:22;26.0;76.5
45383;DHT22;42455;51.660;5.824;2023-09-07T19:39:28;25.9;76.5
45383;DHT22;42455;51.660;5.824;2023-09-07T19:44:35;25.8;77.0
45383;DHT22;42455;51.660;5.824;2023-09-07T19:49:41;25.7;77.0
45383;DHT22;42455;51.660;5.824;2023-09-07T19:54:47;25.6;77.5
45383;DHT22;42455;51.660;5.824;2023-09-07T19:59:52;25.5;77.5
45383;DHT22;42455;51.660;5.824;2023-09-07T20:04:58;25.4;77.5
45383;DHT22;42455;51.660;5.824;2023-09-07T20:10:05;25.3;78.0
45383;DHT22;42455;51.660;5.824;2023-09-07T20:15:11;25.2;78.0
45383;DHT22;42455;51.660;5.824;2023-09-07T20:20:17;25.1;78.0
45383;DHT22;42455;51.660;5.824;2023-09-07T20:25:23;25.0;78.5
45383;DHT22;42455;51.660;5.824;2023-09-07T20:30:29;24.9;78.5
45383;DHT22;42455;51.660;5.824;2023-09-07T20:35:36;24.7;78.5
45383;DHT22;42455;51.660;5.824;2023-09-07T20:40:42;24.6;79.0
45383;DHT22;42455;51.660;5.824;2023-09-07T20:45:49;24.5;79.0
45383;DHT22;42455;51.660;5.824;2023-09-07T20:50:54;24.3;79.5
45383;DHT22;42455;51.660;5.824;2023-09-07T20:56:01;24.1;79.5
45383;DHT22;42455;51.660;5.824;2023-09-07T21:01:07;23.9;80.0
45383;DHT22;42455;51.660;5.824;2023-09-07T21:06:13;23.7;80.5
45383;DHT22;42455;51.660;5.824;2023-09-07T21:11:19;23.6;81.0
45383;DHT22;42455;51.660;5.824;2023-09-07T21:16:25;23.5;81.5
45383;DHT22;42455;51.660;5.824;2023-09-07T21:21:32;23.4;82.0
45383;DHT22;42455;51.660;5.824;2023-09-07T21:26:38;23.3;82.0
45383;DHT22;42455;51.660;5.824;2023-09-07T21:31:44;23.2;82.5
45383;DHT22;42455;51.660;5.824;2023-09-07T21:36:50;23.1;82.5
45383;DHT22;42455;51.660;5.824;2023-09-07T21:41:56;23.0;82.5
45383;DHT22;42455;51.660;5.824;2023-09-07T21:47:03;22.9;82.5
45383;DHT22;42455;51.660;5.824;2023-09-07T21:52:09;22.8;82.5
45383;DHT22;42455;51.660;5.824;2023-09-07T21:57:15;22.7;83.0
45383;DHT22;42455;51.660;5.824;2023-09-07T22:02:22;22.6;83.5
45383;DHT22;42455;51.660;5.824;2023-09-07T22:07:27;22.6;84.0
45383;DHT22;42455;51.660;5.824;2023-09-07T22:12:34;22.5;84.0
45383;DHT22;42455;51.660;5.824;2023-09-07T22:17:40;22.5;84.0
45383;DHT22;42455;51.660;5.824;2023-09-07T22:27:52;22.3;84.5
45383;DHT22;42455;51.660;5.824;2023-09-07T22:32:59;22.2;84.5
45383;DHT22;42455;51.660;5.824;2023-09-07T22:38:05;22.1;84.0
45383;DHT22;42455;51.660;5.824;2023-09-07T22:43:11;22.0;84.5
45383;DHT22;42455;51.660;5.824;2023-09-07T22:48:17;21.9;84.5
45383;DHT22;42455;51.660;5.824;2023-09-07T22:53:23;21.8;85.0
45383;DHT22;42455;51.660;5.824;2023-09-07T22:58:29;21.7;85.0
45383;DHT22;42455;51.660;5.824;2023-09-07T23:03:36;21.6;85.0
45383;DHT22;42455;51.660;5.824;2023-09-07T23:08:42;21.5;85.0
45383;DHT22;42455;51.660;5.824;2023-09-07T23:13:48;21.3;84.5
45383;DHT22;42455;51.660;5.824;2023-09-07T23:18:54;21.2;85.0
45383;DHT22;42455;51.660;5.824;2023-09-07T23:24:01;21.0;85.5
45383;DHT22;42455;51.660;5.824;2023-09-07T23:29:07;20.9;86.0
45383;DHT22;42455;51.660;5.824;2023-09-07T23:34:13;20.8;86.5
45383;DHT22;42455;51.660;5.824;2023-09-07T23:39:19;20.7;86.5
45383;DHT22;42455;51.660;5.824;2023-09-07T23:44:25;20.7;87.0
45383;DHT22;42455;51.660;5.824;2023-09-07T23:49:32;20.6;87.0
45383;DHT22;42455;51.660;5.824;2023-09-07T23:54:38;20.6;87.5
45383;DHT22;42455;51.660;5.824;2023-09-07T23:59:44;20.5;87.5
